sensor_id;sensor_type;location;lat;lon;timestamp;temperature;humidity
55795;DHT22;41716;51.910;4.430;2023-02-15T00:02:24;8.60;99.90
55795;DHT22;41716;51.910;4.430;2023-02-15T00:07:26;8.50;99.90
55795;DHT22;41716;51.910;4.430;2023-02-15T00:12:27;8.30;99.90
55795;DHT22;41716;51.910;4.430;2023-02-15T00:17:30;8.20;99.90
55795;DHT22;41716;51.910;4.430;2023-02-15T00:22:32;8.50;99.90
55795;DHT22;41716;51.910;4.430;2023-02-15T00:27:34;7.20;99.90
55795;DHT22;41716;51.910;4.430;2023-02-15T00:32:37;7.40;99.90
55795;DHT22;41716;51.910;4.430;2023-02-15T00:37:39;7.20;99.90
55795;DHT22;41716;51.910;4.430;2023-02-15T00:42:41;6.60;99.90
55795;DHT22;41716;51.910;4.430;2023-02-15T00:47:44;7.40;99.90
55795;DHT22;41716;51.910;4.430;2023-02-15T00:52:45;7.40;99.90
55795;DHT22;41716;51.910;4.430;2023-02-15T00:57:47;6.70;99.90
55795;DHT22;41716;51.910;4.430;2023-02-15T01:02:50;6.50;99.90
55795;DHT22;41716;51.910;4.430;2023-02-15T01:07:52;7.80;99.90
55795;DHT22;41716;51.910;4.430;2023-02-15T01:12:54;7.90;99.90
55795;DHT22;41716;51.910;4.430;2023-02-15T01:17:57;7.50;99.90
55795;DHT22;41716;51.910;4.430;2023-02-15T01:22:59;6.80;99.90
55795;DHT22;41716;51.910;4.430;2023-02-15T01:28:01;6.60;99.90
55795;DHT22;41716;51.910;4.430;2023-02-15T01:33:04;6.60;99.90
55795;DHT22;41716;51.910;4.430;2023-02-15T01:38:05;7.30;99.90
55795;DHT22;41716;51.910;4.430;2023-02-15T01:43:10;6.10;99.90
55795;DHT22;41716;51.910;4.430;2023-02-15T01:48:19;7.50;99.90
55795;DHT22;41716;51.910;4.430;2023-02-15T01:53:26;7.20;99.90
55795;DHT22;41716;51.910;4.430;2023-02-15T01:58:29;7.90;99.90
55795;DHT22;41716;51.910;4.430;2023-02-15T02:03:37;7.10;99.90
55795;DHT22;41716;51.910;4.430;2023-02-15T02:08:40;7.30;99.90
55795;DHT22;41716;51.910;4.430;2023-02-15T02:13:43;7.60;99.90
55795;DHT22;41716;51.910;4.430;2023-02-15T02:18:59;6.80;99.90
55795;DHT22;41716;51.910;4.430;2023-02-15T02:24:20;7.30;99.90
55795;DHT22;41716;51.910;4.430;2023-02-15T02:29:55;7.30;99.90
55795;DHT22;41716;51.910;4.430;2023-02-15T02:35:06;7.40;99.90
55795;DHT22;41716;51.910;4.430;2023-02-15T02:40:14;7.70;99.90
55795;DHT22;41716;51.910;4.430;2023-02-15T02:45:22;7.30;99.90
55795;DHT22;41716;51.910;4.430;2023-02-15T02:50:29;7.70;99.90
55795;DHT22;41716;51.910;4.430;2023-02-15T02:55:33;7.30;99.90
55795;DHT22;41716;51.910;4.430;2023-02-15T03:00:39;7.90;99.90
55795;DHT22;41716;51.910;4.430;2023-02-15T03:05:45;7.30;99.90
55795;DHT22;41716;51.910;4.430;2023-02-15T03:10:54;6.90;99.90
55795;DHT22;41716;51.910;4.430;2023-02-15T03:15:57;6.90;99.90
55795;DHT22;41716;51.910;4.430;2023-02-15T03:21:19;6.70;99.90
55795;DHT22;41716;51.910;4.430;2023-02-15T03:26:27;6.80;99.90
55795;DHT22;41716;51.910;4.430;2023-02-15T03:31:33;6.30;99.90
55795;DHT22;41716;51.910;4.430;2023-02-15T03:36:43;6.60;99.90
55795;DHT22;41716;51.910;4.430;2023-02-15T03:42:06;7.00;99.90
55795;DHT22;41716;51.910;4.430;2023-02-15T03:47:11;6.70;99.90
55795;DHT22;41716;51.910;4.430;2023-02-15T03:52:16;7.30;99.90
55795;DHT22;41716;51.910;4.430;2023-02-15T03:57:20;7.00;99.90
55795;DHT22;41716;51.910;4.430;2023-02-15T04:02:47;7.30;99.90
55795;DHT22;41716;51.910;4.430;2023-02-15T04:07:55;7.10;99.90
55795;DHT22;41716;51.910;4.430;2023-02-15T04:12:57;7.10;99.90
55795;DHT22;41716;51.910;4.430;2023-02-15T04:17:58;7.30;99.90
55795;DHT22;41716;51.910;4.430;2023-02-15T04:23:05;7.30;99.90
55795;DHT22;41716;51.910;4.430;2023-02-15T04:28:24;6.60;99.90
55795;DHT22;41716;51.910;4.430;2023-02-15T04:33:26;7.10;99.90
55795;DHT22;41716;51.910;4.430;2023-02-15T04:38:29;6.10;99.90
55795;DHT22;41716;51.910;4.430;2023-02-15T04:43:31;6.80;99.90
55795;DHT22;41716;51.910;4.430;2023-02-15T04:48:32;6.10;99.90
55795;DHT22;41716;51.910;4.430;2023-02-15T04:53:36;6.70;99.90
55795;DHT22;41716;51.910;4.430;2023-02-15T04:58:37;6.10;99.90
55795;DHT22;41716;51.910;4.430;2023-02-15T05:03:41;6.70;99.90
55795;DHT22;41716;51.910;4.430;2023-02-15T05:08:44;6.30;99.90
55795;DHT22;41716;51.910;4.430;2023-02-15T05:13:46;6.10;99.90
55795;DHT22;41716;51.910;4.430;2023-02-15T05:18:48;6.70;99.90
55795;DHT22;41716;51.910;4.430;2023-02-15T05:23:51;6.20;99.90
55795;DHT22;41716;51.910;4.430;2023-02-15T05:28:52;6.20;99.90
55795;DHT22;41716;51.910;4.430;2023-02-15T05:33:54;5.80;99.90
55795;DHT22;41716;51.910;4.430;2023-02-15T05:38:57;6.60;99.90
55795;DHT22;41716;51.910;4.430;2023-02-15T05:43:59;6.00;99.90
55795;DHT22;41716;51.910;4.430;2023-02-15T05:49:00;5.60;99.90
55795;DHT22;41716;51.910;4.430;2023-02-15T05:54:03;6.10;99.90
55795;DHT22;41716;51.910;4.430;2023-02-15T05:59:05;6.20;99.90
55795;DHT22;41716;51.910;4.430;2023-02-15T06:04:07;5.50;99.90
55795;DHT22;41716;51.910;4.430;2023-02-15T06:09:11;5.80;99.90
55795;DHT22;41716;51.910;4.430;2023-02-15T06:14:13;5.70;99.90
55795;DHT22;41716;51.910;4.430;2023-02-15T06:19:15;6.00;99.90
55795;DHT22;41716;51.910;4.430;2023-02-15T06:24:18;6.20;99.90
55795;DHT22;41716;51.910;4.430;2023-02-15T06:29:20;5.40;99.90
55795;DHT22;41716;51.910;4.430;2023-02-15T06:34:21;5.30;99.90
55795;DHT22;41716;51.910;4.430;2023-02-15T06:39:24;5.20;99.90
55795;DHT22;41716;51.910;4.430;2023-02-15T06:44:26;6.10;99.90
55795;DHT22;41716;51.910;4.430;2023-02-15T06:49:27;5.30;99.90
55795;DHT22;41716;51.910;4.430;2023-02-15T06:54:31;5.30;99.90
55795;DHT22;41716;51.910;4.430;2023-02-15T06:59:32;5.10;99.90
55795;DHT22;41716;51.910;4.430;2023-02-15T07:04:34;5.40;99.90
55795;DHT22;41716;51.910;4.430;2023-02-15T07:09:38;5.20;99.90
55795;DHT22;41716;51.910;4.430;2023-02-15T07:14:39;6.30;99.90
55795;DHT22;41716;51.910;4.430;2023-02-15T07:19:41;5.00;99.90
55795;DHT22;41716;51.910;4.430;2023-02-15T07:24:45;5.30;99.90
55795;DHT22;41716;51.910;4.430;2023-02-15T07:29:47;5.20;99.90
55795;DHT22;41716;51.910;4.430;2023-02-15T07:34:50;5.00;99.90
55795;DHT22;41716;51.910;4.430;2023-02-15T07:39:54;5.60;99.90
55795;DHT22;41716;51.910;4.430;2023-02-15T07:44:55;5.30;99.90
55795;DHT22;41716;51.910;4.430;2023-02-15T07:49:57;6.10;99.90
55795;DHT22;41716;51.910;4.430;2023-02-15T07:55:00;5.50;99.90
55795;DHT22;41716;51.910;4.430;2023-02-15T08:00:02;5.10;99.90
55795;DHT22;41716;51.910;4.430;2023-02-15T08:05:04;5.60;99.90
55795;DHT22;41716;51.910;4.430;2023-02-15T08:10:07;5.70;99.90
55795;DHT22;41716;51.910;4.430;2023-02-15T08:15:09;6.40;99.90
55795;DHT22;41716;51.910;4.430;2023-02-15T08:20:11;5.70;99.90
55795;DHT22;41716;51.910;4.430;2023-02-15T08:25:14;5.40;99.90
55795;DHT22;41716;51.910;4.430;2023-02-15T08:30:16;5.80;99.90
55795;DHT22;41716;51.910;4.430;2023-02-15T08:35:18;6.50;99.90
55795;DHT22;41716;51.910;4.430;2023-02-15T08:40:21;5.90;99.90
55795;DHT22;41716;51.910;4.430;2023-02-15T08:45:22;7.10;99.90
55795;DHT22;41716;51.910;4.430;2023-02-15T08:50:25;6.90;99.90
55795;DHT22;41716;51.910;4.430;2023-02-15T08:55:29;7.10;99.90
55795;DHT22;41716;51.910;4.430;2023-02-15T09:00:31;7.40;99.90
55795;DHT22;41716;51.910;4.430;2023-02-15T09:05:35;8.00;99.90
55795;DHT22;41716;51.910;4.430;2023-02-15T09:10:38;8.30;99.90
55795;DHT22;41716;51.910;4.430;2023-02-15T09:15:40;9.00;99.90
55795;DHT22;41716;51.910;4.430;2023-02-15T09:20:42;8.60;99.90
55795;DHT22;41716;51.910;4.430;2023-02-15T09:25:45;8.90;99.90
55795;DHT22;41716;51.910;4.430;2023-02-15T09:30:46;9.90;99.90
55795;DHT22;41716;51.910;4.430;2023-02-15T09:35:48;9.30;99.90
55795;DHT22;41716;51.910;4.430;2023-02-15T09:40:53;10.40;99.90
55795;DHT22;41716;51.910;4.430;2023-02-15T09:46:02;9.80;99.90
55795;DHT22;41716;51.910;4.430;2023-02-15T09:51:15;9.80;99.90
55795;DHT22;41716;51.910;4.430;2023-02-15T09:56:24;10.40;99.90
55795;DHT22;41716;51.910;4.430;2023-02-15T10:01:32;10.30;99.90
55795;DHT22;41716;51.910;4.430;2023-02-15T10:06:37;11.10;99.90
55795;DHT22;41716;51.910;4.430;2023-02-15T10:11:51;11.10;99.90
55795;DHT22;41716;51.910;4.430;2023-02-15T10:16:56;10.90;99.90
55795;DHT22;41716;51.910;4.430;2023-02-15T10:22:01;10.90;99.90
55795;DHT22;41716;51.910;4.430;2023-02-15T10:27:06;11.20;99.90
55795;DHT22;41716;51.910;4.430;2023-02-15T10:32:13;11.10;99.90
55795;DHT22;41716;51.910;4.430;2023-02-15T10:37:25;11.20;99.90
55795;DHT22;41716;51.910;4.430;2023-02-15T10:42:34;11.60;99.90
55795;DHT22;41716;51.910;4.430;2023-02-15T10:47:48;11.60;99.90
55795;DHT22;41716;51.910;4.430;2023-02-15T10:52:55;12.60;99.90
55795;DHT22;41716;51.910;4.430;2023-02-15T10:58:02;13.10;99.90
55795;DHT22;41716;51.910;4.430;2023-02-15T11:03:16;13.10;99.90
55795;DHT22;41716;51.910;4.430;2023-02-15T11:08:21;13.70;99.90
55795;DHT22;41716;51.910;4.430;2023-02-15T11:13:26;13.70;99.90
55795;DHT22;41716;51.910;4.430;2023-02-15T11:18:31;13.50;99.90
55795;DHT22;41716;51.910;4.430;2023-02-15T11:23:35;12.40;99.90
55795;DHT22;41716;51.910;4.430;2023-02-15T11:28:38;12.80;99.90
55795;DHT22;41716;51.910;4.430;2023-02-15T11:33:42;13.00;99.90
55795;DHT22;41716;51.910;4.430;2023-02-15T11:38:44;13.50;99.90
55795;DHT22;41716;51.910;4.430;2023-02-15T11:43:49;13.80;99.90
55795;DHT22;41716;51.910;4.430;2023-02-15T11:48:53;14.50;99.90
55795;DHT22;41716;51.910;4.430;2023-02-15T11:53:55;13.90;99.90
55795;DHT22;41716;51.910;4.430;2023-02-15T11:58:59;14.50;99.90
55795;DHT22;41716;51.910;4.430;2023-02-15T12:04:04;14.20;99.90
55795;DHT22;41716;51.910;4.430;2023-02-15T12:09:06;16.30;99.90
55795;DHT22;41716;51.910;4.430;2023-02-15T12:14:16;17.00;99.90
55795;DHT22;41716;51.910;4.430;2023-02-15T12:19:24;17.40;99.90
55795;DHT22;41716;51.910;4.430;2023-02-15T12:24:28;17.20;99.90
55795;DHT22;41716;51.910;4.430;2023-02-15T12:29:35;17.70;99.90
55795;DHT22;41716;51.910;4.430;2023-02-15T12:34:40;17.30;99.90
55795;DHT22;41716;51.910;4.430;2023-02-15T12:39:50;16.00;99.90
55795;DHT22;41716;51.910;4.430;2023-02-15T12:44:55;16.00;99.90
55795;DHT22;41716;51.910;4.430;2023-02-15T12:50:05;16.30;99.90
55795;DHT22;41716;51.910;4.430;2023-02-15T12:55:10;16.40;99.90
55795;DHT22;41716;51.910;4.430;2023-02-15T13:00:26;16.10;99.90
55795;DHT22;41716;51.910;4.430;2023-02-15T13:05:30;15.50;99.90
55795;DHT22;41716;51.910;4.430;2023-02-15T13:10:33;16.00;99.90
55795;DHT22;41716;51.910;4.430;2023-02-15T13:15:38;15.50;99.90
55795;DHT22;41716;51.910;4.430;2023-02-15T13:20:41;15.00;99.90
55795;DHT22;41716;51.910;4.430;2023-02-15T13:25:47;15.30;99.90
55795;DHT22;41716;51.910;4.430;2023-02-15T13:30:52;15.40;99.90
55795;DHT22;41716;51.910;4.430;2023-02-15T13:35:58;15.30;99.90
55795;DHT22;41716;51.910;4.430;2023-02-15T13:41:03;14.80;99.90
55795;DHT22;41716;51.910;4.430;2023-02-15T13:46:10;14.90;99.90
55795;DHT22;41716;51.910;4.430;2023-02-15T13:51:18;15.90;99.90
55795;DHT22;41716;51.910;4.430;2023-02-15T13:56:21;15.40;99.90
55795;DHT22;41716;51.910;4.430;2023-02-15T14:01:31;15.70;99.90
55795;DHT22;41716;51.910;4.430;2023-02-15T14:06:38;16.40;99.90
55795;DHT22;41716;51.910;4.430;2023-02-15T14:11:46;17.50;99.90
55795;DHT22;41716;51.910;4.430;2023-02-15T14:16:54;16.60;99.90
55795;DHT22;41716;51.910;4.430;2023-02-15T14:21:58;16.80;99.90
55795;DHT22;41716;51.910;4.430;2023-02-15T14:27:05;16.80;99.90
55795;DHT22;41716;51.910;4.430;2023-02-15T14:32:10;16.40;99.90
55795;DHT22;41716;51.910;4.430;2023-02-15T14:37:13;16.50;99.90
55795;DHT22;41716;51.910;4.430;2023-02-15T14:42:18;15.70;99.90
55795;DHT22;41716;51.910;4.430;2023-02-15T14:47:24;16.10;99.90
55795;DHT22;41716;51.910;4.430;2023-02-15T14:52:28;16.20;99.90
55795;DHT22;41716;51.910;4.430;2023-02-15T14:57:30;16.10;99.90
55795;DHT22;41716;51.910;4.430;2023-02-15T15:02:44;15.60;99.90
55795;DHT22;41716;51.910;4.430;2023-02-15T15:07:47;15.20;99.90
55795;DHT22;41716;51.910;4.430;2023-02-15T15:12:50;15.30;99.90
55795;DHT22;41716;51.910;4.430;2023-02-15T15:17:55;15.10;99.90
55795;DHT22;41716;51.910;4.430;2023-02-15T15:38:51;13.80;99.90
55795;DHT22;41716;51.910;4.430;2023-02-15T15:49:19;13.30;99.90
55795;DHT22;41716;51.910;4.430;2023-02-15T15:54:23;13.30;99.90
55795;DHT22;41716;51.910;4.430;2023-02-15T15:59:26;13.10;99.90
55795;DHT22;41716;51.910;4.430;2023-02-15T16:04:29;13.00;99.90
55795;DHT22;41716;51.910;4.430;2023-02-15T16:09:33;12.90;99.90
55795;DHT22;41716;51.910;4.430;2023-02-15T16:14:35;13.20;99.90
55795;DHT22;41716;51.910;4.430;2023-02-15T16:19:38;12.80;99.90
55795;DHT22;41716;51.910;4.430;2023-02-15T16:24:46;12.80;99.90
55795;DHT22;41716;51.910;4.430;2023-02-15T16:29:51;12.80;99.90
55795;DHT22;41716;51.910;4.430;2023-02-15T16:34:53;12.70;99.90
55795;DHT22;41716;51.910;4.430;2023-02-15T16:39:56;13.00;99.90
55795;DHT22;41716;51.910;4.430;2023-02-15T16:45:00;12.90;99.90
55795;DHT22;41716;51.910;4.430;2023-02-15T16:50:06;13.00;99.90
55795;DHT22;41716;51.910;4.430;2023-02-15T16:55:28;12.80;99.90
55795;DHT22;41716;51.910;4.430;2023-02-15T17:00:34;12.50;99.90
55795;DHT22;41716;51.910;4.430;2023-02-15T17:05:40;12.60;99.90
55795;DHT22;41716;51.910;4.430;2023-02-15T17:10:44;12.50;99.90
55795;DHT22;41716;51.910;4.430;2023-02-15T17:16:05;12.40;99.90
55795;DHT22;41716;51.910;4.430;2023-02-15T17:21:08;12.30;99.90
55795;DHT22;41716;51.910;4.430;2023-02-15T17:26:13;12.40;99.90
55795;DHT22;41716;51.910;4.430;2023-02-15T17:31:17;12.20;99.90
55795;DHT22;41716;51.910;4.430;2023-02-15T17:36:19;12.30;99.90
55795;DHT22;41716;51.910;4.430;2023-02-15T17:41:24;12.10;99.90
55795;DHT22;41716;51.910;4.430;2023-02-15T17:46:28;12.20;99.90
55795;DHT22;41716;51.910;4.430;2023-02-15T17:51:32;12.00;99.90
55795;DHT22;41716;51.910;4.430;2023-02-15T17:56:36;12.00;99.90
55795;DHT22;41716;51.910;4.430;2023-02-15T18:01:41;11.90;99.90
55795;DHT22;41716;51.910;4.430;2023-02-15T18:07:01;11.80;99.90
55795;DHT22;41716;51.910;4.430;2023-02-15T18:12:22;11.90;99.90
55795;DHT22;41716;51.910;4.430;2023-02-15T18:17:26;11.80;99.90
55795;DHT22;41716;51.910;4.430;2023-02-15T18:22:28;11.80;99.90
55795;DHT22;41716;51.910;4.430;2023-02-15T18:27:31;11.70;99.90
55795;DHT22;41716;51.910;4.430;2023-02-15T18:32:34;11.60;99.90
55795;DHT22;41716;51.910;4.430;2023-02-15T18:37:36;11.70;99.90
55795;DHT22;41716;51.910;4.430;2023-02-15T18:42:39;11.50;99.90
55795;DHT22;41716;51.910;4.430;2023-02-15T18:47:46;11.40;99.90
55795;DHT22;41716;51.910;4.430;2023-02-15T18:52:48;11.30;99.90
55795;DHT22;41716;51.910;4.430;2023-02-15T18:57:52;11.30;99.90
55795;DHT22;41716;51.910;4.430;2023-02-15T19:02:55;11.10;99.90
55795;DHT22;41716;51.910;4.430;2023-02-15T19:07:56;11.20;99.90
55795;DHT22;41716;51.910;4.430;2023-02-15T19:13:00;11.10;99.90
55795;DHT22;41716;51.910;4.430;2023-02-15T19:18:02;11.00;99.90
55795;DHT22;41716;51.910;4.430;2023-02-15T19:23:04;11.00;99.90
55795;DHT22;41716;51.910;4.430;2023-02-15T19:28:13;11.10;99.90
55795;DHT22;41716;51.910;4.430;2023-02-15T19:33:15;10.90;99.90
55795;DHT22;41716;51.910;4.430;2023-02-15T19:38:18;10.80;99.90
55795;DHT22;41716;51.910;4.430;2023-02-15T19:43:22;10.70;99.90
55795;DHT22;41716;51.910;4.430;2023-02-15T19:48:24;10.70;99.90
55795;DHT22;41716;51.910;4.430;2023-02-15T19:53:26;10.70;99.90
55795;DHT22;41716;51.910;4.430;2023-02-15T19:58:29;10.60;99.90
55795;DHT22;41716;51.910;4.430;2023-02-15T20:03:32;10.60;99.90
55795;DHT22;41716;51.910;4.430;2023-02-15T20:08:34;10.50;99.90
55795;DHT22;41716;51.910;4.430;2023-02-15T20:13:37;10.40;99.90
55795;DHT22;41716;51.910;4.430;2023-02-15T20:18:39;10.40;99.90
55795;DHT22;41716;51.910;4.430;2023-02-15T20:23:43;10.30;99.90
55795;DHT22;41716;51.910;4.430;2023-02-15T20:28:47;10.20;99.90
55795;DHT22;41716;51.910;4.430;2023-02-15T20:33:49;10.10;99.90
55795;DHT22;41716;51.910;4.430;2023-02-15T20:38:50;10.00;99.90
55795;DHT22;41716;51.910;4.430;2023-02-15T20:43:53;10.00;99.90
55795;DHT22;41716;51.910;4.430;2023-02-15T20:48:55;10.00;99.90
55795;DHT22;41716;51.910;4.430;2023-02-15T20:53:56;10.00;99.90
55795;DHT22;41716;51.910;4.430;2023-02-15T20:58:59;9.90;99.90
55795;DHT22;41716;51.910;4.430;2023-02-15T21:04:01;9.90;99.90
55795;DHT22;41716;51.910;4.430;2023-02-15T21:09:02;9.70;99.90
55795;DHT22;41716;51.910;4.430;2023-02-15T21:14:07;9.70;99.90
55795;DHT22;41716;51.910;4.430;2023-02-15T21:19:10;9.70;99.90
55795;DHT22;41716;51.910;4.430;2023-02-15T21:24:13;9.70;99.90
55795;DHT22;41716;51.910;4.430;2023-02-15T21:29:17;9.70;99.90
55795;DHT22;41716;51.910;4.430;2023-02-15T21:34:19;9.70;99.90
55795;DHT22;41716;51.910;4.430;2023-02-15T21:39:22;9.60;99.90
55795;DHT22;41716;51.910;4.430;2023-02-15T21:44:25;9.60;99.90
55795;DHT22;41716;51.910;4.430;2023-02-15T21:49:44;9.50;99.90
55795;DHT22;41716;51.910;4.430;2023-02-15T21:54:46;9.40;99.90
55795;DHT22;41716;51.910;4.430;2023-02-15T21:59:49;9.40;99.90
55795;DHT22;41716;51.910;4.430;2023-02-15T22:04:51;9.40;99.90
55795;DHT22;41716;51.910;4.430;2023-02-15T22:09:52;9.40;99.90
55795;DHT22;41716;51.910;4.430;2023-02-15T22:14:55;9.20;99.90
55795;DHT22;41716;51.910;4.430;2023-02-15T22:19:58;9.30;99.90
55795;DHT22;41716;51.910;4.430;2023-02-15T22:25:00;9.20;99.90
55795;DHT22;41716;51.910;4.430;2023-02-15T22:30:03;9.20;99.90
55795;DHT22;41716;51.910;4.430;2023-02-15T22:35:16;8.90;99.90
55795;DHT22;41716;51.910;4.430;2023-02-15T22:40:19;9.00;99.90
55795;DHT22;41716;51.910;4.430;2023-02-15T22:45:23;8.90;99.90
55795;DHT22;41716;51.910;4.430;2023-02-15T22:50:27;8.90;99.90
55795;DHT22;41716;51.910;4.430;2023-02-15T22:55:29;9.00;99.90
55795;DHT22;41716;51.910;4.430;2023-02-15T23:00:36;8.60;99.90
55795;DHT22;41716;51.910;4.430;2023-02-15T23:05:38;8.70;99.90
55795;DHT22;41716;51.910;4.430;2023-02-15T23:10:40;8.60;99.90
55795;DHT22;41716;51.910;4.430;2023-02-15T23:15:45;8.70;99.90
55795;DHT22;41716;51.910;4.430;2023-02-15T23:20:48;8.40;99.90
55795;DHT22;41716;51.910;4.430;2023-02-15T23:25:50;8.50;99.90
55795;DHT22;41716;51.910;4.430;2023-02-15T23:30:53;8.20;99.90
55795;DHT22;41716;51.910;4.430;2023-02-15T23:35:55;8.60;99.90
55795;DHT22;41716;51.910;4.430;2023-02-15T23:41:00;8.10;99.90
55795;DHT22;41716;51.910;4.430;2023-02-15T23:46:25;8.30;99.90
55795;DHT22;41716;51.910;4.430;2023-02-15T23:51:27;8.50;99.90
55795;DHT22;41716;51.910;4.430;2023-02-15T23:56:29;8.10;99.90
